Time;durP1;ratioP1;P1;durP2;ratioP2;P2;SDS_P1;SDS_P2;PMS_P1;PMS_P2;Temp;Humidity;BMP_temperature;BMP_pressure;BME280_temperature;BME280_humidity;BME280_pressure;Samples;Min_cycle;Max_cycle;Signal;HPM_P1;HPM_P2
2023/05/18 00:02:51;;;;;;;8.20;4.80;;;23.20;53.50;;;;;;7604516;23;80346;-64
2023/05/18 00:05:52;;;;;;;7.85;4.65;;;23.20;53.50;;;;;;7605166;23;80309;-64
2023/05/18 00:08:52;;;;;;;8.43;4.70;;;23.20;53.50;;;;;;7603994;23;80414;-64
2023/05/18 00:11:53;;;;;;;8.23;5.00;;;23.20;53.50;;;;;;7604259;23;80422;-62
2023/05/18 00:14:53;;;;;;;9.35;5.45;;;23.20;53.40;;;;;;7605179;23;80875;-63
2023/05/18 00:17:54;;;;;;;6.35;4.50;;;23.20;53.40;;;;;;7604107;23;80366;-58
2023/05/18 00:20:57;;;;;;;8.55;5.07;;;23.20;53.40;;;;;;7604142;23;81405;-58
2023/05/18 00:23:58;;;;;;;11.45;5.70;;;23.20;53.30;;;;;;7604828;23;80310;-57
2023/05/18 00:26:58;;;;;;;8.32;4.90;;;23.20;53.30;;;;;;7604465;23;80576;-58
2023/05/18 00:29:59;;;;;;;10.93;5.13;;;23.20;53.90;;;;;;7603977;23;80024;-58
2023/05/18 00:32:59;;;;;;;7.35;4.88;;;23.20;53.20;;;;;;7603268;23;80998;-59
2023/05/18 00:36:00;;;;;;;7.68;5.03;;;23.20;53.40;;;;;;7604884;23;80226;-60
2023/05/18 00:39:00;;;;;;;8.40;4.60;;;23.20;53.30;;;;;;7578702;23;83120;-59
2023/05/18 00:42:01;;;;;;;5.43;4.10;;;23.20;53.40;;;;;;7605632;23;80438;-59
2023/05/18 00:45:02;;;;;;;8.90;4.93;;;23.10;53.30;;;;;;7577468;23;82988;-57
2023/05/18 00:48:02;;;;;;;8.93;4.90;;;23.10;53.50;;;;;;7577030;23;83126;-57
2023/05/18 00:51:03;;;;;;;9.20;4.85;;;23.20;53.60;;;;;;7603684;23;80487;-58
2023/05/18 00:54:05;;;;;;;7.38;4.60;;;23.10;53.40;;;;;;7603821;23;80336;-58
2023/05/18 00:57:05;;;;;;;7.45;4.50;;;23.20;53.30;;;;;;7604315;23;80621;-58
2023/05/18 01:00:09;;;;;;;7.60;4.85;;;23.20;53.40;;;;;;7605399;23;80409;-57
2023/05/18 01:03:10;;;;;;;7.40;4.05;;;23.10;53.40;;;;;;7576597;23;83397;-58
2023/05/18 01:06:13;;;;;;;7.20;4.60;;;23.10;53.30;;;;;;7576656;23;82619;-58
2023/05/18 01:09:15;;;;;;;7.05;4.93;;;23.20;53.30;;;;;;7603162;23;80346;-56
2023/05/18 01:12:15;;;;;;;7.43;4.40;;;23.10;53.20;;;;;;7578301;23;81796;-60
2023/05/18 01:15:16;;;;;;;6.35;4.05;;;23.10;53.30;;;;;;7605290;23;80852;-59
2023/05/18 01:18:16;;;;;;;8.75;4.60;;;23.10;53.20;;;;;;7604236;23;80501;-59
2023/05/18 01:21:18;;;;;;;7.30;4.28;;;23.10;53.10;;;;;;7606730;23;81316;-59
2023/05/18 01:24:20;;;;;;;7.88;4.10;;;23.10;53.20;;;;;;7604895;23;80765;-59
2023/05/18 01:27:23;;;;;;;8.68;4.35;;;23.10;53.20;;;;;;7579779;23;83120;-58
2023/05/18 01:30:24;;;;;;;6.80;4.03;;;23.10;53.30;;;;;;7579724;23;83182;-58
2023/05/18 01:33:24;;;;;;;9.32;4.43;;;23.10;53.20;;;;;;7577729;23;80586;-57
2023/05/18 01:36:25;;;;;;;7.05;3.95;;;23.20;53.00;;;;;;7606083;23;80283;-58
2023/05/18 01:39:27;;;;;;;12.70;4.45;;;23.20;53.20;;;;;;7578417;23;83757;-57
2023/05/18 01:42:28;;;;;;;6.28;4.18;;;23.20;53.10;;;;;;7578909;23;81371;-58
2023/05/18 01:45:28;;;;;;;6.15;4.05;;;23.20;53.10;;;;;;7579433;23;82237;-58
2023/05/18 01:48:29;;;;;;;7.07;4.32;;;23.10;53.20;;;;;;7578834;23;82283;-59
2023/05/18 01:51:30;;;;;;;12.80;3.58;;;23.20;53.20;;;;;;7575531;23;82694;-59
2023/05/18 01:54:30;;;;;;;7.45;4.05;;;23.20;53.10;;;;;;7578602;23;82648;-57
2023/05/18 01:57:31;;;;;;;6.03;4.13;;;23.20;53.20;;;;;;7577848;23;83334;-58
2023/05/18 02:00:31;;;;;;;5.63;3.92;;;23.20;53.20;;;;;;7579641;23;83259;-58
2023/05/18 02:03:33;;;;;;;9.27;4.07;;;23.20;53.10;;;;;;7578697;23;82925;-55
2023/05/18 02:06:33;;;;;;;6.97;3.33;;;23.20;53.10;;;;;;7605788;23;80551;-58
2023/05/18 02:09:34;;;;;;;5.90;3.47;;;23.20;53.10;;;;;;7605893;23;81323;-56
2023/05/18 02:12:34;;;;;;;7.55;4.03;;;23.20;53.10;;;;;;7604620;23;80319;-58
2023/05/18 02:15:35;;;;;;;6.55;3.90;;;23.20;53.00;;;;;;7579853;23;83087;-58
2023/05/18 02:18:37;;;;;;;4.43;3.30;;;23.20;53.10;;;;;;7605005;23;80233;-57
2023/05/18 02:21:38;;;;;;;8.43;4.05;;;23.20;53.10;;;;;;7554146;23;81968;-58
2023/05/18 02:24:38;;;;;;;6.30;4.15;;;23.20;53.00;;;;;;7578561;23;83237;-57
2023/05/18 02:27:39;;;;;;;4.95;3.55;;;23.20;52.90;;;;;;7578503;23;82926;-62
2023/05/18 02:30:40;;;;;;;7.93;3.47;;;23.10;52.80;;;;;;7577868;23;83185;-61
2023/05/18 02:33:40;;;;;;;7.90;3.83;;;23.10;52.90;;;;;;7605501;23;80096;-60
2023/05/18 02:36:41;;;;;;;7.68;3.67;;;23.10;52.90;;;;;;7579280;23;81818;-61
2023/05/18 02:39:42;;;;;;;7.53;4.10;;;23.10;52.80;;;;;;7578510;23;83328;-61
2023/05/18 02:42:42;;;;;;;8.15;3.97;;;23.10;52.80;;;;;;7578765;23;81475;-60
2023/05/18 02:45:44;;;;;;;7.82;3.90;;;23.10;52.70;;;;;;7578605;23;81332;-61
2023/05/18 02:48:44;;;;;;;5.60;3.63;;;23.10;52.70;;;;;;7578644;23;83183;-60
2023/05/18 02:51:45;;;;;;;6.55;4.00;;;23.10;52.80;;;;;;7577248;23;82248;-61
2023/05/18 02:54:47;;;;;;;6.53;3.92;;;23.10;52.80;;;;;;7578613;23;83592;-62
2023/05/18 02:57:55;;;;;;;7.50;3.80;;;23.10;52.80;;;;;;7578748;23;82740;-60
2023/05/18 03:00:59;;;;;;;6.13;3.58;;;23.10;52.90;;;;;;7579064;23;82560;-62
2023/05/18 03:04:02;;;;;;;7.07;3.72;;;23.10;52.80;;;;;;7577672;23;81528;-59
2023/05/18 03:07:06;;;;;;;6.20;3.75;;;23.20;52.90;;;;;;7578161;23;83257;-58
2023/05/18 03:10:07;;;;;;;8.15;3.85;;;23.10;52.80;;;;;;7575847;23;82175;-51
2023/05/18 03:13:08;;;;;;;7.22;4.32;;;23.10;52.70;;;;;;7602734;23;81356;-52
2023/05/18 03:16:09;;;;;;;5.93;3.60;;;23.10;52.90;;;;;;7577547;23;83528;-55
2023/05/18 03:19:10;;;;;;;6.18;3.90;;;23.20;52.90;;;;;;7605544;23;80221;-58
2023/05/18 03:22:13;;;;;;;8.13;3.80;;;23.20;52.90;;;;;;7578799;23;82515;-67
2023/05/18 03:25:15;;;;;;;10.43;4.28;;;23.20;53.20;;;;;;7579604;23;81997;-66
2023/05/18 03:28:16;;;;;;;7.07;3.92;;;23.20;53.30;;;;;;7577941;23;83289;-65
2023/05/18 03:31:16;;;;;;;6.20;3.58;;;23.20;53.40;;;;;;7604489;23;80627;-65
2023/05/18 03:34:17;;;;;;;8.75;4.03;;;23.20;53.30;;;;;;7578237;23;83490;-63
2023/05/18 03:37:17;;;;;;;8.00;3.47;;;23.20;53.20;;;;;;7577317;23;83436;-70
2023/05/18 03:40:18;;;;;;;7.50;4.25;;;23.20;53.30;;;;;;7577549;23;83302;-58
2023/05/18 03:43:24;;;;;;;9.85;3.80;;;23.20;53.00;;;;;;7604680;23;80386;-59
2023/05/18 03:46:25;;;;;;;6.82;4.00;;;23.20;53.00;;;;;;7577283;23;81360;-61
2023/05/18 03:49:26;;;;;;;5.80;3.40;;;23.20;53.10;;;;;;7598542;23;80853;-57
2023/05/18 03:52:28;;;;;;;5.68;3.17;;;23.20;53.30;;;;;;7576597;23;81563;-58
2023/05/18 03:55:29;;;;;;;6.05;3.17;;;23.20;53.40;;;;;;7575035;23;82545;-60
2023/05/18 03:58:29;;;;;;;9.98;3.85;;;23.10;53.70;;;;;;7576359;23;88593;-54
2023/05/18 04:01:32;;;;;;;8.75;4.45;;;23.10;53.90;;;;;;7576809;23;83512;-55
2023/05/18 04:04:33;;;;;;;10.25;3.90;;;23.20;55.00;;;;;;7602979;23;80522;-56
2023/05/18 04:07:42;;;;;;;5.80;3.30;;;23.10;55.50;;;;;;7577718;23;82173;-56
2023/05/18 04:10:43;;;;;;;8.57;3.13;;;23.10;55.40;;;;;;7579427;23;82161;-62
2023/05/18 04:13:43;;;;;;;7.18;3.38;;;23.10;55.80;;;;;;7581110;23;83210;-61
2023/05/18 04:16:44;;;;;;;7.32;3.15;;;23.10;56.00;;;;;;7579650;23;83218;-60
2023/05/18 04:19:44;;;;;;;8.43;3.38;;;23.20;56.20;;;;;;7606332;23;80456;-56
2023/05/18 04:22:46;;;;;;;4.75;2.80;;;23.20;55.90;;;;;;7580332;23;83439;-58
2023/05/18 04:25:48;;;;;;;4.50;3.13;;;23.20;55.50;;;;;;7580306;23;83502;-57
2023/05/18 04:28:50;;;;;;;11.50;4.03;;;23.20;55.40;;;;;;7607674;23;80419;-59
2023/05/18 04:31:52;;;;;;;7.53;3.65;;;23.20;55.20;;;;;;7581054;23;81977;-59
2023/05/18 04:34:53;;;;;;;11.43;3.45;;;23.20;54.90;;;;;;7577220;23;83517;-66
2023/05/18 04:37:54;;;;;;;8.63;3.70;;;23.20;54.90;;;;;;7579279;23;83294;-66
2023/05/18 04:40:55;;;;;;;9.98;3.90;;;23.20;54.40;;;;;;7599312;23;87267;-68
2023/05/18 04:43:59;;;;;;;10.80;3.65;;;23.10;54.10;;;;;;7575396;23;82155;-67
2023/05/18 04:47:00;;;;;;;6.20;3.05;;;23.10;53.40;;;;;;7572671;23;82880;-65
2023/05/18 04:50:02;;;;;;;9.93;3.67;;;23.10;53.20;;;;;;7573069;23;81372;-66
2023/05/18 04:53:06;;;;;;;7.63;3.22;;;23.10;51.90;;;;;;7572695;23;83124;-64
2023/05/18 04:56:07;;;;;;;4.55;2.70;;;23.00;51.70;;;;;;7605643;23;80613;-64
2023/05/18 04:59:08;;;;;;;9.25;3.22;;;23.00;51.90;;;;;;7606174;23;80868;-64
2023/05/18 05:02:08;;;;;;;8.85;3.28;;;23.00;51.50;;;;;;7578190;23;83604;-68
2023/05/18 05:05:09;;;;;;;11.07;3.50;;;22.90;51.60;;;;;;7581907;23;82402;-65
2023/05/18 05:08:10;;;;;;;11.27;3.08;;;22.90;50.50;;;;;;7581245;23;83172;-64
2023/05/18 05:11:11;;;;;;;8.20;3.15;;;22.90;49.70;;;;;;7607197;23;84749;-63
2023/05/18 05:14:11;;;;;;;8.98;2.90;;;22.80;49.70;;;;;;7608286;23;80851;-64
2023/05/18 05:17:12;;;;;;;8.02;2.90;;;22.90;49.60;;;;;;7580571;23;82375;-64
2023/05/18 05:20:12;;;;;;;6.55;3.42;;;22.90;49.80;;;;;;7605867;23;80178;-64
2023/05/18 05:23:13;;;;;;;7.10;3.15;;;22.90;49.90;;;;;;7577044;23;82658;-63
2023/05/18 05:26:15;;;;;;;5.15;2.70;;;22.90;49.90;;;;;;7577777;23;83117;-64
2023/05/18 05:29:16;;;;;;;11.05;2.90;;;22.90;49.30;;;;;;7578561;23;83531;-62
2023/05/18 05:32:17;;;;;;;6.72;3.00;;;22.80;49.50;;;;;;7577620;23;83569;-62
2023/05/18 05:35:18;;;;;;;11.55;2.75;;;22.80;49.40;;;;;;7576572;23;81707;-63
2023/05/18 05:38:20;;;;;;;9.10;2.65;;;22.80;49.50;;;;;;7577811;23;82462;-65
2023/05/18 05:41:21;;;;;;;6.20;2.97;;;22.80;49.60;;;;;;7604079;23;81059;-62
2023/05/18 05:44:22;;;;;;;8.10;3.50;;;22.80;49.40;;;;;;7578752;23;83442;-61
2023/05/18 05:47:23;;;;;;;12.88;3.42;;;22.80;49.50;;;;;;7577145;23;82978;-61
2023/05/18 05:50:23;;;;;;;9.18;3.22;;;22.80;49.40;;;;;;7578792;23;83081;-60
2023/05/18 05:53:28;;;;;;;5.28;2.78;;;22.80;49.20;;;;;;7576246;23;82329;-59
2023/05/18 05:56:29;;;;;;;8.32;2.50;;;22.80;49.30;;;;;;7575508;23;82395;-61
2023/05/18 05:59:30;;;;;;;7.93;2.78;;;22.80;49.00;;;;;;7575139;23;82738;-60
2023/05/18 06:02:32;;;;;;;6.78;3.40;;;22.80;48.90;;;;;;7576214;23;82330;-60
2023/05/18 06:05:33;;;;;;;12.02;2.92;;;22.80;48.60;;;;;;7574553;23;83161;-60
2023/05/18 06:08:35;;;;;;;11.40;3.00;;;22.70;48.70;;;;;;7574979;23;83311;-64
2023/05/18 06:11:35;;;;;;;7.38;2.45;;;22.70;48.40;;;;;;7574600;23;83415;-63
2023/05/18 06:14:36;;;;;;;9.00;2.90;;;22.70;48.40;;;;;;7601966;23;80719;-63
2023/05/18 06:17:37;;;;;;;9.63;3.63;;;22.70;48.40;;;;;;7575809;23;82119;-63
2023/05/18 06:20:38;;;;;;;5.97;2.67;;;22.70;48.00;;;;;;7578451;23;83552;-63
2023/05/18 06:23:39;;;;;;;9.85;2.42;;;22.70;48.10;;;;;;7605550;23;80340;-62
2023/05/18 06:26:53;;;;;;;8.13;3.20;;;22.70;48.00;;;;;;7578527;23;83440;-63
2023/05/18 06:30:23;;;;;;;7.43;2.90;;;22.70;47.70;;;;;;7570579;23;81437;-61
2023/05/18 06:33:38;;;;;;;9.32;2.90;;;22.70;47.60;;;;;;7579309;23;83223;-63
2023/05/18 06:36:38;;;;;;;6.85;2.80;;;22.70;47.50;;;;;;7578856;23;83071;-62
2023/05/18 06:39:39;;;;;;;6.13;2.53;;;22.60;47.30;;;;;;7604295;23;80635;-63
2023/05/18 06:42:40;;;;;;;7.57;2.80;;;22.60;47.50;;;;;;7576899;23;82225;-62
2023/05/18 06:45:58;;;;;;;4.85;2.38;;;22.60;47.40;;;;;;7578256;23;82190;-63
2023/05/18 06:49:11;;;;;;;9.20;2.78;;;22.60;47.40;;;;;;7605350;23;80422;-63
2023/05/18 06:52:13;;;;;;;5.28;2.30;;;22.70;47.50;;;;;;7578755;23;83153;-64
2023/05/18 06:55:15;;;;;;;7.28;2.15;;;22.60;47.50;;;;;;7577862;23;80334;-63
2023/05/18 06:58:16;;;;;;;4.07;2.10;;;22.60;47.20;;;;;;7577498;23;82399;-63
2023/05/18 07:01:18;;;;;;;5.22;2.42;;;22.60;47.40;;;;;;7577572;23;82055;-63
2023/05/18 07:04:19;;;;;;;8.40;3.45;;;22.60;47.20;;;;;;7577645;23;81701;-63
2023/05/18 07:07:20;;;;;;;6.43;2.45;;;22.60;47.40;;;;;;7604011;23;80320;-62
2023/05/18 07:10:21;;;;;;;7.80;2.67;;;22.60;47.20;;;;;;7604299;23;80555;-62
2023/05/18 07:13:21;;;;;;;7.63;2.53;;;22.60;47.20;;;;;;7604421;23;81028;-62
2023/05/18 07:16:22;;;;;;;7.78;2.85;;;22.60;47.20;;;;;;7603493;23;80359;-62
2023/05/18 07:19:23;;;;;;;8.32;2.80;;;22.60;47.10;;;;;;7604115;23;80327;-63
2023/05/18 07:22:23;;;;;;;10.68;2.88;;;22.60;47.10;;;;;;7604297;23;80252;-63
2023/05/18 07:25:24;;;;;;;4.68;2.08;;;22.60;47.10;;;;;;7603076;23;81275;-63
2023/05/18 07:28:24;;;;;;;5.60;2.03;;;22.60;47.20;;;;;;7603948;23;80486;-64
2023/05/18 07:31:25;;;;;;;6.13;2.38;;;22.60;47.10;;;;;;7603476;23;80487;-64
2023/05/18 07:34:26;;;;;;;7.65;2.72;;;22.60;47.00;;;;;;7577459;23;80356;-63
2023/05/18 07:37:26;;;;;;;5.72;1.90;;;22.60;47.00;;;;;;7603603;23;80870;-63
2023/05/18 07:40:27;;;;;;;4.97;1.88;;;22.60;47.20;;;;;;7592350;23;80915;-60
2023/05/18 07:43:27;;;;;;;3.70;1.83;;;22.60;47.00;;;;;;7603864;23;80541;-59
2023/05/18 07:46:28;;;;;;;4.57;1.88;;;22.60;47.10;;;;;;7603606;23;80467;-54
2023/05/18 07:49:28;;;;;;;6.38;2.75;;;22.60;47.10;;;;;;7598066;23;81791;-59
2023/05/18 07:52:29;;;;;;;6.63;2.30;;;22.60;47.30;;;;;;7602026;23;81089;-62
2023/05/18 07:55:30;;;;;;;4.28;1.80;;;22.60;47.30;;;;;;7603647;23;80261;-62
2023/05/18 07:58:30;;;;;;;5.60;2.15;;;22.70;47.50;;;;;;7603942;23;79850;-62
2023/05/18 08:01:31;;;;;;;4.63;1.88;;;22.70;47.50;;;;;;7601938;23;80516;-64
2023/05/18 08:04:32;;;;;;;8.43;2.58;;;22.70;47.60;;;;;;7602161;23;81668;-61
2023/05/18 08:07:32;;;;;;;4.97;1.95;;;22.70;47.60;;;;;;7604259;23;80574;-63
2023/05/18 08:10:33;;;;;;;3.17;1.70;;;22.70;47.50;;;;;;7604417;23;80484;-61
2023/05/18 08:13:33;;;;;;;6.43;2.28;;;22.70;47.60;;;;;;7603013;23;80242;-63
2023/05/18 08:16:36;;;;;;;5.18;2.35;;;22.70;47.60;;;;;;7597904;23;80867;-61
2023/05/18 08:19:37;;;;;;;5.40;2.15;;;22.60;47.60;;;;;;7602325;23;80252;-60
2023/05/18 08:22:37;;;;;;;3.42;1.90;;;22.70;47.70;;;;;;7603511;23;80503;-60
2023/05/18 08:25:38;;;;;;;4.35;1.80;;;22.70;47.70;;;;;;7606971;23;80306;-62
2023/05/18 08:28:38;;;;;;;2.85;1.40;;;22.70;47.80;;;;;;7602459;23;80392;-60
2023/05/18 08:31:39;;;;;;;5.65;1.90;;;22.70;47.80;;;;;;7606086;23;80868;-62
2023/05/18 08:34:40;;;;;;;3.95;1.75;;;22.70;47.80;;;;;;7606271;23;80837;-73
2023/05/18 08:37:41;;;;;;;5.97;2.15;;;22.70;47.80;;;;;;7605819;23;81072;-73
2023/05/18 08:40:41;;;;;;;8.05;1.95;;;22.80;47.90;;;;;;7605438;23;80332;-71
2023/05/18 08:43:42;;;;;;;4.03;1.75;;;22.80;47.90;;;;;;7602524;23;80799;-73
2023/05/18 08:46:46;;;;;;;2.65;1.30;;;22.80;47.90;;;;;;7606475;23;80675;-72
2023/05/18 08:49:46;;;;;;;4.05;1.88;;;22.80;47.90;;;;;;7605677;23;80506;-71
2023/05/18 08:52:47;;;;;;;6.78;1.70;;;22.80;47.90;;;;;;7605621;23;80999;-60
2023/05/18 08:55:48;;;;;;;2.08;1.25;;;22.90;48.00;;;;;;7605769;23;80491;-61
2023/05/18 08:58:48;;;;;;;2.90;1.58;;;22.90;48.10;;;;;;7603804;23;80490;-61
2023/05/18 09:01:49;;;;;;;3.22;1.50;;;22.90;48.00;;;;;;7608055;23;80695;-60
2023/05/18 09:04:49;;;;;;;4.47;1.73;;;22.90;47.90;;;;;;7607224;23;80539;-63
2023/05/18 09:07:50;;;;;;;6.63;1.92;;;22.90;48.00;;;;;;7608441;23;80584;-61
2023/05/18 09:10:51;;;;;;;5.10;1.85;;;22.90;47.90;;;;;;7607494;23;80663;-64
2023/05/18 09:13:51;;;;;;;3.17;1.52;;;22.90;48.00;;;;;;7604911;23;81003;-63
2023/05/18 09:16:52;;;;;;;2.83;1.58;;;22.90;47.90;;;;;;7606787;23;80303;-62
2023/05/18 09:19:52;;;;;;;3.83;1.85;;;22.90;48.00;;;;;;7579622;23;81300;-62
2023/05/18 09:22:53;;;;;;;4.55;1.60;;;22.90;47.90;;;;;;7605569;23;80464;-62
2023/05/18 09:25:53;;;;;;;4.95;1.33;;;22.90;47.90;;;;;;7606774;23;80322;-62
2023/05/18 09:28:54;;;;;;;3.42;1.70;;;22.90;47.90;;;;;;7602494;23;80204;-68
2023/05/18 09:31:54;;;;;;;2.95;1.63;;;22.90;48.00;;;;;;7606977;23;80868;-67
2023/05/18 09:34:55;;;;;;;4.57;1.55;;;22.90;48.00;;;;;;7607762;23;80779;-71
2023/05/18 09:37:56;;;;;;;3.85;1.85;;;23.00;48.10;;;;;;7607767;23;80024;-68
2023/05/18 09:40:57;;;;;;;7.80;1.80;;;22.90;48.10;;;;;;7602841;23;81207;-68
2023/05/18 09:43:57;;;;;;;3.17;1.52;;;23.00;48.10;;;;;;7603745;23;80850;-70
2023/05/18 09:46:58;;;;;;;4.07;1.80;;;22.90;48.10;;;;;;7605775;23;80729;-68
2023/05/18 09:49:58;;;;;;;2.88;1.63;;;22.90;48.10;;;;;;7605196;23;80376;-72
2023/05/18 09:52:59;;;;;;;3.80;1.50;;;22.90;48.10;;;;;;7606895;23;80209;-60
2023/05/18 09:55:59;;;;;;;3.50;1.73;;;22.90;48.20;;;;;;7603018;23;86030;-68
2023/05/18 09:59:00;;;;;;;5.15;1.55;;;22.90;48.20;;;;;;7606806;23;80538;-68
2023/05/18 10:02:01;;;;;;;4.55;1.80;;;22.90;48.30;;;;;;7600367;23;80534;-70
2023/05/18 10:05:01;;;;;;;2.55;1.33;;;22.90;48.20;;;;;;7605442;23;80863;-70
2023/05/18 10:08:02;;;;;;;4.05;1.55;;;22.90;48.20;;;;;;7603758;23;80535;-68
2023/05/18 10:11:02;;;;;;;7.25;2.00;;;22.90;48.40;;;;;;7603570;23;81650;-67
2023/05/18 10:14:03;;;;;;;3.45;1.55;;;22.90;48.40;;;;;;7606431;23;80837;-70
2023/05/18 10:17:03;;;;;;;5.75;2.15;;;22.90;48.50;;;;;;7606771;23;81212;-70
2023/05/18 10:20:05;;;;;;;4.70;1.92;;;22.90;48.50;;;;;;7606468;23;81178;-70
2023/05/18 10:23:05;;;;;;;4.20;1.50;;;23.00;48.70;;;;;;7596217;23;80356;-65
2023/05/18 10:26:06;;;;;;;2.30;1.60;;;23.00;48.70;;;;;;7600353;23;81537;-64
2023/05/18 10:29:07;;;;;;;3.92;2.13;;;23.00;48.80;;;;;;7604954;23;80297;-66
2023/05/18 10:32:07;;;;;;;5.95;1.63;;;23.00;48.80;;;;;;7606592;23;81287;-74
2023/05/18 10:35:08;;;;;;;4.28;1.90;;;23.00;48.80;;;;;;7607907;23;80098;-66
2023/05/18 10:38:08;;;;;;;5.15;2.03;;;22.90;48.60;;;;;;7607272;23;80353;-65
2023/05/18 10:41:09;;;;;;;3.92;1.92;;;23.00;48.70;;;;;;7603986;23;80231;-67
2023/05/18 10:44:09;;;;;;;3.25;1.60;;;23.00;48.60;;;;;;7606479;23;83869;-67
2023/05/18 10:47:10;;;;;;;3.03;1.50;;;23.00;48.60;;;;;;7605849;23;83546;-68
2023/05/18 10:50:10;;;;;;;3.63;1.60;;;23.00;48.50;;;;;;7607135;23;80580;-67
2023/05/18 10:53:11;;;;;;;4.35;1.40;;;22.90;48.40;;;;;;7603603;23;80323;-67
2023/05/18 10:56:12;;;;;;;5.90;2.00;;;22.90;48.40;;;;;;7603163;23;81849;-66
2023/05/18 10:59:12;;;;;;;5.05;2.00;;;22.90;48.40;;;;;;7606266;23;80959;-64
2023/05/18 11:02:13;;;;;;;3.60;1.77;;;22.90;48.40;;;;;;7599454;23;81104;-66
2023/05/18 11:05:13;;;;;;;3.67;1.73;;;22.90;48.50;;;;;;7606039;23;80953;-66
2023/05/18 11:08:14;;;;;;;2.28;1.52;;;22.90;48.50;;;;;;7603839;23;81311;-65
2023/05/18 11:11:14;;;;;;;5.70;2.63;;;22.90;48.50;;;;;;7607152;23;80454;-64
2023/05/18 11:14:15;;;;;;;3.50;1.70;;;22.90;48.60;;;;;;7606772;23;80859;-63
2023/05/18 11:17:19;;;;;;;4.22;2.03;;;22.90;48.60;;;;;;7606309;23;80551;-65
2023/05/18 11:20:19;;;;;;;4.60;2.35;;;22.90;48.70;;;;;;7605908;23;80346;-72
2023/05/18 11:23:19;;;;;;;4.95;2.35;;;22.90;48.70;;;;;;7602981;23;83419;-72
2023/05/18 11:26:20;;;;;;;5.10;2.50;;;22.90;48.60;;;;;;7605869;23;80266;-71
2023/05/18 11:29:21;;;;;;;5.13;2.00;;;22.90;48.60;;;;;;7608580;23;80210;-71
2023/05/18 11:32:21;;;;;;;7.40;2.55;;;22.90;48.70;;;;;;7607687;23;80517;-71
2023/05/18 11:35:22;;;;;;;3.70;2.17;;;22.90;48.70;;;;;;7605887;23;80380;-71
2023/05/18 11:38:22;;;;;;;4.53;2.45;;;22.90;48.70;;;;;;7603915;23;81037;-67
2023/05/18 11:41:23;;;;;;;6.72;2.60;;;22.90;48.70;;;;;;7607442;23;81446;-69
2023/05/18 11:44:24;;;;;;;7.20;2.58;;;22.90;48.80;;;;;;7607147;23;80817;-69
2023/05/18 11:47:24;;;;;;;4.03;2.08;;;22.90;48.70;;;;;;7607312;23;80487;-68
2023/05/18 11:50:25;;;;;;;7.60;2.80;;;22.90;48.70;;;;;;7607724;23;80248;-71
2023/05/18 11:53:25;;;;;;;6.00;3.08;;;22.90;48.80;;;;;;7601212;23;80439;-69
2023/05/18 11:56:26;;;;;;;10.68;2.50;;;22.90;48.80;;;;;;7606468;23;80327;-67
2023/05/18 11:59:26;;;;;;;4.38;2.30;;;22.90;48.90;;;;;;7607250;23;80576;-70
2023/05/18 12:02:27;;;;;;;5.28;2.40;;;22.90;48.90;;;;;;7578300;23;80402;-68
2023/05/18 12:05:27;;;;;;;7.00;2.75;;;22.90;48.90;;;;;;7606308;23;80511;-66
2023/05/18 12:08:28;;;;;;;7.72;2.35;;;22.90;48.90;;;;;;7601473;23;80470;-72
2023/05/18 12:11:29;;;;;;;4.28;2.13;;;22.90;48.90;;;;;;7606915;23;80422;-68
2023/05/18 12:14:29;;;;;;;4.68;2.10;;;22.90;48.90;;;;;;7606571;23;81087;-66
2023/05/18 12:17:30;;;;;;;6.10;2.15;;;22.90;48.90;;;;;;7606591;23;80778;-67
2023/05/18 12:20:30;;;;;;;4.40;2.30;;;22.90;48.90;;;;;;7576273;23;81412;-67
2023/05/18 12:23:31;;;;;;;4.72;2.42;;;22.90;48.90;;;;;;7607914;23;80339;-66
2023/05/18 12:26:32;;;;;;;8.05;2.30;;;22.90;48.90;;;;;;7605991;23;80308;-65
2023/05/18 12:29:32;;;;;;;6.35;2.30;;;22.90;49.50;;;;;;7606745;23;81214;-66
2023/05/18 12:32:33;;;;;;;7.40;2.20;;;22.90;48.80;;;;;;7605205;23;80502;-68
2023/05/18 12:35:33;;;;;;;9.05;2.42;;;22.90;48.90;;;;;;7604976;23;80573;-67
2023/05/18 12:38:34;;;;;;;6.25;2.63;;;22.90;48.70;;;;;;7604341;23;80596;-66
2023/05/18 12:41:34;;;;;;;9.25;2.53;;;22.90;48.80;;;;;;7602138;23;80351;-67
2023/05/18 12:44:35;;;;;;;5.47;2.45;;;22.90;49.30;;;;;;7602725;23;81755;-66
2023/05/18 12:47:35;;;;;;;4.88;1.92;;;22.90;48.50;;;;;;7602975;23;81318;-67
2023/05/18 12:50:37;;;;;;;6.15;2.20;;;22.90;48.60;;;;;;7602315;23;80653;-67
2023/05/18 12:53:38;;;;;;;3.67;1.92;;;22.90;48.60;;;;;;7603052;23;81893;-69
2023/05/18 12:56:38;;;;;;;6.85;2.35;;;22.90;48.60;;;;;;7601002;23;80582;-69
2023/05/18 12:59:39;;;;;;;12.52;3.75;;;22.90;48.60;;;;;;7605380;23;80497;-68
2023/05/18 13:02:39;;;;;;;7.75;2.67;;;22.90;48.70;;;;;;7605204;23;80943;-72
2023/05/18 13:05:44;;;;;;;8.68;2.42;;;22.90;48.70;;;;;;7606802;23;80918;-68
2023/05/18 13:08:44;;;;;;;5.10;2.10;;;22.90;48.90;;;;;;7606434;23;81647;-61
2023/05/18 13:11:45;;;;;;;3.97;2.53;;;22.90;49.00;;;;;;7605583;23;80830;-70
2023/05/18 13:14:46;;;;;;;8.88;2.50;;;22.90;49.00;;;;;;7605935;23;80729;-68
2023/05/18 13:17:46;;;;;;;7.07;2.63;;;22.90;49.20;;;;;;7606683;23;81025;-68
2023/05/18 13:20:49;;;;;;;6.95;2.38;;;23.00;49.50;;;;;;7605629;23;81169;-68
2023/05/18 13:23:50;;;;;;;10.45;2.55;;;23.00;49.40;;;;;;7606472;23;80298;-68
2023/05/18 13:26:50;;;;;;;6.40;2.78;;;23.00;49.80;;;;;;7605962;23;80386;-67
2023/05/18 13:29:51;;;;;;;5.43;2.58;;;23.10;49.70;;;;;;7606592;23;80246;-66
2023/05/18 13:32:51;;;;;;;9.73;2.63;;;23.00;49.90;;;;;;7606136;23;79998;-65
2023/05/18 13:35:52;;;;;;;6.63;2.70;;;23.00;49.80;;;;;;7605535;23;80976;-67
2023/05/18 13:38:52;;;;;;;9.05;2.83;;;23.00;49.90;;;;;;7605829;23;80396;-66
2023/05/18 13:41:53;;;;;;;4.57;2.28;;;23.00;49.90;;;;;;7605787;23;81652;-66
2023/05/18 13:44:54;;;;;;;5.10;2.28;;;23.00;50.50;;;;;;7604733;23;80310;-57
2023/05/18 13:47:55;;;;;;;6.47;2.28;;;23.10;50.10;;;;;;7605522;23;80141;-60
2023/05/18 13:50:56;;;;;;;8.15;2.17;;;23.00;50.10;;;;;;7606327;23;80184;-60
2023/05/18 13:53:56;;;;;;;10.88;2.72;;;23.10;50.20;;;;;;7607392;23;80623;-59
2023/05/18 13:56:57;;;;;;;5.90;2.35;;;23.00;50.40;;;;;;7606126;23;80414;-59
2023/05/18 13:59:58;;;;;;;7.22;2.58;;;23.10;50.40;;;;;;7605553;23;80990;-61
2023/05/18 14:02:58;;;;;;;5.07;2.67;;;23.00;50.30;;;;;;7605798;23;80143;-57
2023/05/18 14:05:59;;;;;;;7.82;3.20;;;23.00;50.50;;;;;;7605151;23;80682;-71
2023/05/18 14:08:59;;;;;;;5.90;2.33;;;23.00;50.40;;;;;;7605547;23;80106;-70
2023/05/18 14:12:00;;;;;;;8.82;3.22;;;23.00;50.50;;;;;;7578677;23;82891;-69
2023/05/18 14:15:00;;;;;;;6.95;3.05;;;23.00;50.80;;;;;;7579345;23;83176;-68
2023/05/18 14:18:01;;;;;;;8.15;3.83;;;23.00;51.20;;;;;;7605242;23;80391;-63
2023/05/18 14:21:02;;;;;;;9.10;2.50;;;22.90;51.20;;;;;;7605157;23;80336;-60
2023/05/18 14:24:06;;;;;;;13.50;4.72;;;22.90;51.20;;;;;;7579005;23;80810;-62
2023/05/18 14:27:06;;;;;;;38.42;26.52;;;22.90;51.50;;;;;;7605136;23;80727;-63
2023/05/18 14:30:07;;;;;;;48.80;31.38;;;22.90;51.90;;;;;;7601238;23;83246;-59
2023/05/18 14:33:07;;;;;;;35.30;22.30;;;22.90;52.20;;;;;;7601803;23;83318;-59
2023/05/18 14:36:08;;;;;;;22.23;15.55;;;22.90;52.00;;;;;;7600893;23;83240;-67
2023/05/18 14:39:08;;;;;;;27.92;15.30;;;22.90;52.00;;;;;;7599977;23;83817;-62
2023/05/18 14:42:09;;;;;;;29.50;17.95;;;22.90;51.90;;;;;;7600865;23;83927;-61
2023/05/18 14:45:09;;;;;;;66.55;42.83;;;22.90;52.10;;;;;;7574806;23;84004;-62
2023/05/18 14:48:10;;;;;;;58.70;33.15;;;22.90;52.00;;;;;;7601016;23;83383;-60
2023/05/18 14:51:10;;;;;;;39.90;26.50;;;22.90;52.00;;;;;;7601364;23;82731;-60
2023/05/18 14:54:12;;;;;;;34.97;22.55;;;22.90;52.20;;;;;;7600854;23;83978;-59
2023/05/18 14:57:13;;;;;;;27.20;17.17;;;22.90;52.10;;;;;;7600544;23;83021;-63
2023/05/18 15:00:13;;;;;;;25.10;15.45;;;22.90;52.80;;;;;;7601145;23;83632;-59
2023/05/18 15:03:14;;;;;;;21.65;14.27;;;22.90;52.80;;;;;;7598847;23;82893;-62
2023/05/18 15:06:15;;;;;;;23.08;13.10;;;22.90;53.00;;;;;;7599941;23;83180;-62
2023/05/18 15:09:16;;;;;;;19.80;11.90;;;22.90;52.80;;;;;;7223910;23;86705;-62
2023/05/18 15:12:18;;;;;;;22.50;11.48;;;22.90;52.80;;;;;;6790995;23;86105;-61
2023/05/18 15:15:19;;;;;;;19.23;11.48;;;22.90;52.60;;;;;;6793266;23;86197;-61
2023/05/18 15:18:20;;;;;;;16.13;10.52;;;22.90;52.40;;;;;;6804454;23;86897;-67
2023/05/18 15:21:23;;;;;;;15.77;9.60;;;23.00;52.40;;;;;;6803643;23;86915;-70
2023/05/18 15:24:25;;;;;;;13.77;9.45;;;23.00;52.40;;;;;;6759544;23;85236;-64
2023/05/18 15:27:26;;;;;;;13.23;9.13;;;23.00;52.40;;;;;;6762689;23;83120;-64
2023/05/18 15:30:29;;;;;;;12.90;8.43;;;23.00;52.60;;;;;;6771898;23;83518;-63
2023/05/18 15:33:34;;;;;;;17.88;9.73;;;23.10;52.70;;;;;;6773393;23;83329;-64
2023/05/18 15:36:38;;;;;;;16.35;9.18;;;23.10;53.00;;;;;;6736258;23;83782;-64
2023/05/18 15:39:43;;;;;;;12.23;7.63;;;23.10;52.90;;;;;;6775989;23;83370;-64
2023/05/18 15:42:45;;;;;;;16.17;8.13;;;23.10;52.70;;;;;;6779196;23;84030;-63